createdAt,value
2023-01-12T00:01:51.774Z,97944.59
2023-01-12T00:04:18.778Z,97937.06
2023-01-12T00:06:45.676Z,97932.78
2023-01-12T00:09:12.791Z,97944.91
2023-01-12T00:11:40.333Z,97943.81
2023-01-12T00:14:08.725Z,97939.78
2023-01-12T00:16:37.703Z,97948.22
2023-01-12T00:19:18.666Z,97941.13
2023-01-12T00:22:04.336Z,97945.16
2023-01-12T00:24:39.270Z,97943.50
2023-01-12T00:27:09.877Z,97947.16
2023-01-12T00:29:37.158Z,97940.53
2023-01-12T00:32:05.728Z,97945.28
2023-01-12T00:34:32.426Z,97944.97
2023-01-12T00:37:01.474Z,97956.13
2023-01-12T00:39:28.111Z,97956.44
2023-01-12T00:42:13.474Z,97956.66
2023-01-12T00:44:58.986Z,97958.97
2023-01-12T00:47:25.675Z,97947.81
2023-01-12T00:49:53.149Z,97959.28
2023-01-12T00:52:30.469Z,97959.06
2023-01-12T00:54:59.206Z,97959.41
2023-01-12T00:57:26.530Z,97960.16
2023-01-12T00:59:57.979Z,97969.22
2023-01-12T01:02:24.985Z,97965.13
2023-01-12T01:04:51.810Z,97970.44
2023-01-12T01:07:21.484Z,97970.84
2023-01-12T01:09:48.513Z,97976.22
2023-01-12T01:12:15.240Z,97976.66
2023-01-12T01:14:41.914Z,97995.66
2023-01-12T01:17:08.722Z,97992.13
2023-01-12T01:19:36.808Z,98009.66
2023-01-12T01:22:03.791Z,98008.41
2023-01-12T01:24:30.473Z,98018.53
2023-01-12T01:26:57.254Z,98035.66
2023-01-12T01:29:23.891Z,98033.25
2023-01-12T01:31:50.597Z,98034.28
2023-01-12T01:34:17.932Z,98020.50
2023-01-12T01:36:44.602Z,98014.78
2023-01-12T01:39:11.299Z,98021.69
2023-01-12T01:41:37.953Z,98036.19
2023-01-12T01:44:49.718Z,98049.56
2023-01-12T01:47:28.332Z,98046.00
2023-01-12T01:49:57.628Z,98033.16
2023-01-12T01:52:30.112Z,98034.91
2023-01-12T01:55:03.140Z,98023.84
2023-01-12T01:57:48.658Z,98031.78
2023-01-12T02:00:15.998Z,98035.63
2023-01-12T02:02:46.128Z,98035.75
2023-01-12T02:05:18.713Z,98031.84
2023-01-12T02:07:45.307Z,98034.34
2023-01-12T02:10:12.127Z,98041.25
2023-01-12T02:12:57.876Z,98045.84
2023-01-12T02:15:47.194Z,98050.47
2023-01-12T02:18:32.663Z,98049.69
2023-01-12T02:21:27.854Z,98046.00
2023-01-12T02:24:17.342Z,98051.72
2023-01-12T02:27:15.088Z,98065.88
2023-01-12T02:30:29.232Z,98067.66
2023-01-12T02:33:47.198Z,98065.28
2023-01-12T02:36:42.746Z,98057.47
2023-01-12T02:39:26.415Z,98046.41
2023-01-12T02:42:25.203Z,98058.50
2023-01-12T02:45:00.472Z,98059.81
2023-01-12T02:48:23.961Z,98064.22
2023-01-12T02:51:25.331Z,98066.19
2023-01-12T02:53:55.306Z,98069.84
2023-01-12T02:56:35.373Z,98067.88
2023-01-12T02:59:11.639Z,98075.50
2023-01-12T03:01:41.146Z,98073.81
2023-01-12T03:04:10.902Z,98081.66
2023-01-12T03:06:42.773Z,98075.28
2023-01-12T03:09:10.108Z,98077.03
2023-01-12T03:11:40.600Z,98077.25
2023-01-12T03:14:09.769Z,98076.31
2023-01-12T03:16:39.142Z,98069.94
2023-01-12T03:19:09.901Z,98064.81
2023-01-12T03:21:59.118Z,98070.84
2023-01-12T03:24:30.713Z,98072.34
2023-01-12T03:27:06.213Z,98066.44
2023-01-12T03:29:41.477Z,98065.25
2023-01-12T03:32:08.438Z,98072.50
2023-01-12T03:34:36.465Z,98082.97
2023-01-12T03:37:37.872Z,98076.88
2023-01-12T03:40:15.119Z,98064.88
2023-01-12T03:42:49.032Z,98062.88
2023-01-12T03:45:50.956Z,98063.38
2023-01-12T03:48:49.989Z,98069.09
2023-01-12T03:51:29.530Z,98075.09
2023-01-12T03:53:57.642Z,98079.72
2023-01-12T03:56:28.668Z,98077.47
2023-01-12T03:58:55.731Z,98086.41
2023-01-12T04:01:22.571Z,98074.22
2023-01-12T04:03:49.337Z,98075.72
2023-01-12T04:06:15.978Z,98080.13
2023-01-12T04:08:42.650Z,98073.88
2023-01-12T04:11:29.520Z,98071.91
2023-01-12T04:13:56.224Z,98080.47
2023-01-12T04:16:22.924Z,98079.69
2023-01-12T04:18:49.554Z,98070.16
2023-01-12T04:21:34.535Z,98086.19
2023-01-12T04:24:01.183Z,98078.19
2023-01-12T04:26:27.874Z,98088.06
2023-01-12T04:28:54.559Z,98087.34
2023-01-12T04:31:21.244Z,98084.41
2023-01-12T04:33:47.889Z,98076.56
2023-01-12T04:36:15.510Z,98079.03
2023-01-12T04:38:42.329Z,98086.44
2023-01-12T04:41:09.376Z,98079.31
2023-01-12T04:43:36.083Z,98079.91
2023-01-12T04:46:07.951Z,98078.28
2023-01-12T04:48:34.696Z,98078.28
2023-01-12T04:51:02.557Z,98078.28
2023-01-12T04:53:29.682Z,98083.97
2023-01-12T04:55:57.119Z,98072.91
2023-01-12T04:58:24.209Z,98071.97
2023-01-12T05:00:50.985Z,98071.59
2023-01-12T05:03:17.755Z,98068.97
2023-01-12T05:05:44.473Z,98079.78
2023-01-12T05:08:31.311Z,98081.34
2023-01-12T05:11:00.661Z,98075.69
2023-01-12T05:13:30.550Z,98072.81
2023-01-12T05:15:57.339Z,98063.25
2023-01-12T05:18:24.063Z,98057.91
2023-01-12T05:20:50.713Z,98062.06
2023-01-12T05:23:17.345Z,98067.75
2023-01-12T05:25:44.032Z,98078.28
2023-01-12T05:28:10.729Z,98077.81
2023-01-12T05:30:37.368Z,98077.81
2023-01-12T05:33:04.136Z,98070.16
2023-01-12T05:35:30.733Z,98074.09
2023-01-12T05:37:57.600Z,98085.72
2023-01-12T05:40:24.974Z,98079.59
2023-01-12T05:43:10.388Z,98094.06
2023-01-12T05:45:37.252Z,98095.28
2023-01-12T05:48:04.466Z,98096.59
2023-01-12T05:50:31.104Z,98095.06
2023-01-12T05:52:57.789Z,98090.41
2023-01-12T05:55:24.482Z,98097.06
2023-01-12T05:57:51.085Z,98098.81
2023-01-12T06:00:18.662Z,98089.97
2023-01-12T06:02:45.284Z,98110.84
2023-01-12T06:05:11.957Z,98111.06
2023-01-12T06:07:38.824Z,98114.13
2023-01-12T06:10:06.130Z,98102.66
2023-01-12T06:12:51.252Z,98101.31
2023-01-12T06:15:17.859Z,98097.13
2023-01-12T06:17:44.462Z,98107.41
2023-01-12T06:20:14.940Z,98104.91
2023-01-12T06:22:41.635Z,98106.63
2023-01-12T06:25:08.991Z,98100.94
2023-01-12T06:27:36.016Z,98095.03
2023-01-12T06:30:02.654Z,98099.41
2023-01-12T06:32:29.866Z,98093.94
2023-01-12T06:35:01.611Z,98091.25
2023-01-12T06:37:33.585Z,98104.25
2023-01-12T06:40:00.311Z,98103.09
2023-01-12T06:42:29.893Z,98100.91
2023-01-12T06:44:57.874Z,98100.91
2023-01-12T06:47:25.130Z,98098.47
2023-01-12T06:49:52.226Z,98096.25
2023-01-12T06:52:20.884Z,98095.06
2023-01-12T06:54:47.762Z,98103.25
2023-01-12T06:57:15.003Z,98108.16
2023-01-12T06:59:42.147Z,98099.06
2023-01-12T07:02:14.102Z,98103.00
2023-01-12T07:04:41.897Z,98109.88
2023-01-12T07:07:10.216Z,98115.09
2023-01-12T07:09:37.311Z,98111.91
2023-01-12T07:12:04.854Z,98118.78
2023-01-12T07:14:31.537Z,98116.03
2023-01-12T07:16:58.195Z,98111.41
2023-01-12T07:19:24.941Z,98112.94
2023-01-12T07:21:51.558Z,98109.97
2023-01-12T07:24:18.259Z,98108.50
2023-01-12T07:26:47.741Z,98108.97
2023-01-12T07:29:14.350Z,98102.03
2023-01-12T07:31:41.006Z,98096.34
2023-01-12T07:34:07.733Z,98102.00
2023-01-12T07:36:34.366Z,98100.00
2023-01-12T07:39:01.327Z,98101.16
2023-01-12T07:41:46.553Z,98096.66
2023-01-12T07:44:13.235Z,98090.22
2023-01-12T07:46:39.904Z,98096.09
2023-01-12T07:49:06.536Z,98094.84
2023-01-12T07:51:33.475Z,98095.50
2023-01-12T07:54:00.226Z,98090.44
2023-01-12T07:56:26.946Z,98081.03
2023-01-12T07:58:53.638Z,98092.81
2023-01-12T08:01:20.346Z,98088.28
2023-01-12T08:03:47.478Z,98079.19
2023-01-12T08:06:14.212Z,98087.13
2023-01-12T08:08:41.415Z,98083.16
2023-01-12T08:11:10.166Z,98086.16
2023-01-12T08:13:37.923Z,98083.44
2023-01-12T08:16:16.246Z,98078.63
2023-01-12T08:19:08.061Z,98081.34
2023-01-12T08:21:47.447Z,98081.28
2023-01-12T08:24:18.016Z,98087.88
2023-01-12T08:26:48.736Z,98082.16
2023-01-12T08:29:21.020Z,98083.03
2023-01-12T08:31:47.785Z,98079.75
2023-01-12T08:34:14.495Z,98078.97
2023-01-12T08:36:44.324Z,98078.22
2023-01-12T08:39:11.477Z,98083.88
2023-01-12T08:41:38.097Z,98080.56
2023-01-12T08:44:10.796Z,98080.78
2023-01-12T08:46:53.932Z,98080.50
2023-01-12T08:49:26.969Z,98072.81
2023-01-12T08:51:53.830Z,98079.38
2023-01-12T08:54:21.906Z,98076.38
2023-01-12T08:56:49.422Z,98077.03
2023-01-12T08:59:16.526Z,98081.78
2023-01-12T09:01:43.524Z,98080.44
2023-01-12T09:04:10.446Z,98085.06
2023-01-12T09:06:43.005Z,98090.19
2023-01-12T09:09:10.650Z,98085.69
2023-01-12T09:11:39.344Z,98087.13
2023-01-12T09:14:06.420Z,98085.66
2023-01-12T09:16:33.860Z,98086.81
2023-01-12T09:19:00.950Z,98102.56
2023-01-12T09:21:28.865Z,98099.56
2023-01-12T09:23:55.863Z,98092.78
2023-01-12T09:26:33.904Z,98103.78
2023-01-12T09:29:02.353Z,98101.78
2023-01-12T09:31:30.734Z,98096.34
2023-01-12T09:33:57.967Z,98095.94
2023-01-12T09:36:27.230Z,98095.50
2023-01-12T09:38:54.308Z,98092.38
2023-01-12T09:41:59.483Z,98091.22
2023-01-12T09:44:50.675Z,98088.38
2023-01-12T09:47:44.797Z,98092.97
2023-01-12T09:50:20.421Z,98087.31
2023-01-12T09:53:00.032Z,98085.84
2023-01-12T09:55:31.671Z,98084.81
2023-01-12T09:58:37.091Z,98081.59
2023-01-12T10:01:20.439Z,98074.41
2023-01-12T10:03:55.637Z,98058.22
2023-01-12T10:06:22.468Z,98061.59
2023-01-12T10:09:00.983Z,98051.47
2023-01-12T10:11:48.680Z,98058.81
2023-01-12T10:15:12.129Z,98055.75
2023-01-12T10:18:04.255Z,98045.41
2023-01-12T10:20:38.513Z,98042.69
2023-01-12T10:23:26.737Z,98035.47
2023-01-12T10:26:19.659Z,98034.00
2023-01-12T10:28:46.936Z,98032.09
2023-01-12T10:31:20.649Z,98031.78
2023-01-12T10:34:10.093Z,98020.09
2023-01-12T10:36:43.318Z,98022.16
2023-01-12T10:39:35.122Z,98019.69
2023-01-12T10:42:55.769Z,98014.47
2023-01-12T10:45:24.586Z,98016.00
2023-01-12T10:47:56.887Z,98010.09
2023-01-12T10:50:32.771Z,98008.28
2023-01-12T10:53:06.124Z,98010.91
2023-01-12T10:55:39.737Z,98004.09
2023-01-12T10:58:20.289Z,98004.00
2023-01-12T11:00:48.809Z,97995.84
2023-01-12T11:03:39.402Z,97991.66
2023-01-12T11:06:28.121Z,97991.00
2023-01-12T11:08:55.590Z,97987.78
2023-01-12T11:11:31.226Z,97979.78
2023-01-12T11:14:02.756Z,97973.81
2023-01-12T11:16:44.023Z,97970.88
2023-01-12T11:19:21.879Z,97967.63
2023-01-12T11:21:57.302Z,97958.59
2023-01-12T11:25:08.764Z,97949.56
2023-01-12T11:27:47.025Z,97936.09
2023-01-12T11:30:23.236Z,97936.88
2023-01-12T11:33:28.513Z,97941.59
2023-01-12T11:36:03.138Z,97935.56
2023-01-12T11:38:43.808Z,97928.59
2023-01-12T11:41:25.527Z,97908.66
2023-01-12T11:44:19.287Z,97900.09
2023-01-12T11:46:52.109Z,97884.53
2023-01-12T11:49:34.374Z,97886.75
2023-01-12T11:52:02.899Z,97883.47
2023-01-12T11:54:31.759Z,97883.88
2023-01-12T11:57:25.515Z,97880.28
2023-01-12T12:00:34.668Z,97868.31
2023-01-12T12:03:31.337Z,97865.41
2023-01-12T12:06:35.381Z,97869.38
2023-01-12T12:09:31.967Z,97867.19
2023-01-12T12:12:55.650Z,97860.97
2023-01-12T12:15:56.788Z,97859.31
2023-01-12T12:19:10.072Z,97852.22
2023-01-12T12:21:48.844Z,97846.59
2023-01-12T12:25:07.891Z,97842.22
2023-01-12T12:27:58.619Z,97828.41
2023-01-12T12:31:05.320Z,97832.41
2023-01-12T12:34:22.538Z,97839.09
2023-01-12T12:37:34.434Z,97833.13
2023-01-12T12:40:16.469Z,97832.94
2023-01-12T12:43:16.329Z,97827.50
2023-01-12T12:46:11.437Z,97825.13
2023-01-12T12:49:01.316Z,97820.41
2023-01-12T12:51:30.814Z,97819.13
2023-01-12T12:53:58.581Z,97813.13
2023-01-12T12:56:26.904Z,97817.84
2023-01-12T12:58:55.727Z,97813.69
2023-01-12T13:01:36.615Z,97803.88
2023-01-12T13:04:05.542Z,97801.88
2023-01-12T13:06:34.997Z,97791.53
2023-01-12T13:09:23.272Z,97786.63
2023-01-12T13:12:20.963Z,97782.59
2023-01-12T13:15:24.602Z,97786.19
2023-01-12T13:17:53.375Z,97795.63
2023-01-12T13:20:50.796Z,97799.78
2023-01-12T13:23:49.063Z,97788.19
2023-01-12T13:26:34.998Z,97786.34
2023-01-12T13:29:38.641Z,97800.72
2023-01-12T13:32:23.319Z,97796.16
2023-01-12T13:34:52.874Z,97780.56
2023-01-12T13:37:33.196Z,97772.19
2023-01-12T13:40:20.397Z,97790.25
2023-01-12T13:43:07.798Z,97778.13
2023-01-12T13:45:36.634Z,97771.94
2023-01-12T13:48:06.384Z,97761.94
2023-01-12T13:50:35.571Z,97760.44
2023-01-12T13:53:04.433Z,97763.84
2023-01-12T13:55:33.014Z,97761.06
2023-01-12T13:58:18.358Z,97758.13
2023-01-12T14:01:00.667Z,97759.91
2023-01-12T14:04:34.809Z,97767.28
2023-01-12T14:07:42.434Z,97761.19
2023-01-12T14:10:47.439Z,97770.78
2023-01-12T14:13:52.103Z,97769.88
2023-01-12T14:16:37.335Z,97777.50
2023-01-12T14:19:26.006Z,97782.06
2023-01-12T14:22:00.057Z,97787.59
2023-01-12T14:24:26.764Z,97787.44
2023-01-12T14:26:53.422Z,97778.78
2023-01-12T14:29:20.273Z,97780.44
2023-01-12T14:31:49.860Z,97795.66
2023-01-12T14:34:35.054Z,97790.16
2023-01-12T14:37:07.867Z,97787.09
2023-01-12T14:39:41.442Z,97789.31
2023-01-12T14:42:37.595Z,97792.75
2023-01-12T14:45:45.028Z,97791.69
2023-01-12T14:48:29.676Z,97802.84
2023-01-12T14:51:26.095Z,97805.56
2023-01-12T14:54:01.076Z,97811.72
2023-01-12T14:56:39.073Z,97808.47
2023-01-12T14:59:19.682Z,97810.78
2023-01-12T15:01:46.483Z,97798.47
2023-01-12T15:04:19.837Z,97797.34
2023-01-12T15:06:47.182Z,97798.41
2023-01-12T15:09:27.320Z,97790.97
2023-01-12T15:11:54.258Z,97797.25
2023-01-12T15:14:25.122Z,97804.50
2023-01-12T15:17:11.541Z,97795.69
2023-01-12T15:19:56.888Z,97800.19
2023-01-12T15:22:46.878Z,97796.00
2023-01-12T15:25:35.080Z,97788.84
2023-01-12T15:28:06.724Z,97792.28
2023-01-12T15:30:37.424Z,97792.41
2023-01-12T15:33:05.624Z,97790.75
2023-01-12T15:35:32.719Z,97792.53
2023-01-12T15:37:59.582Z,97790.41
2023-01-12T15:40:27.958Z,97778.31
2023-01-12T15:42:54.726Z,97784.59
2023-01-12T15:45:37.655Z,97781.97
2023-01-12T15:48:05.437Z,97783.47
2023-01-12T15:50:33.787Z,97771.00
2023-01-12T15:53:01.555Z,97778.03
2023-01-12T15:55:31.382Z,97769.66
2023-01-12T15:57:58.071Z,97779.47
2023-01-12T16:00:24.800Z,97776.44
2023-01-12T16:02:52.794Z,97780.34
2023-01-12T16:05:22.332Z,97783.78
2023-01-12T16:07:49.720Z,97783.38
2023-01-12T16:10:17.119Z,97790.38
2023-01-12T16:12:44.462Z,97780.34
2023-01-12T16:15:22.768Z,97773.88
2023-01-12T16:17:50.483Z,97777.84
2023-01-12T16:20:19.827Z,97782.03
2023-01-12T16:22:47.246Z,97778.13
2023-01-12T16:25:14.752Z,97777.72
2023-01-12T16:27:41.610Z,97776.59
2023-01-12T16:30:12.691Z,97782.00
2023-01-12T16:32:39.384Z,97782.56
2023-01-12T16:35:06.049Z,97780.97
2023-01-12T16:37:33.386Z,97778.81
2023-01-12T16:40:00.956Z,97775.34
2023-01-12T16:42:28.009Z,97776.09
2023-01-12T16:44:54.679Z,97777.03
2023-01-12T16:47:21.479Z,97779.31
2023-01-12T16:49:50.045Z,97781.69
2023-01-12T16:52:18.767Z,97785.91
2023-01-12T16:54:45.681Z,97785.59
2023-01-12T16:57:14.476Z,97786.41
2023-01-12T16:59:41.782Z,97782.13
2023-01-12T17:02:17.059Z,97782.13
2023-01-12T17:04:44.929Z,97780.16
2023-01-12T17:07:12.044Z,97785.16
2023-01-12T17:09:39.814Z,97782.97
2023-01-12T17:12:07.550Z,97770.25
2023-01-12T17:14:35.069Z,97771.59
2023-01-12T17:17:05.887Z,97769.31
2023-01-12T17:19:36.548Z,97770.88
2023-01-12T17:22:06.782Z,97778.06
2023-01-12T17:24:35.582Z,97780.59
2023-01-12T17:27:02.654Z,97785.69
2023-01-12T17:29:29.481Z,97783.19
2023-01-12T17:32:03.732Z,97783.94
2023-01-12T17:34:33.484Z,97781.22
2023-01-12T17:37:04.100Z,97778.06
2023-01-12T17:39:31.237Z,97782.34
2023-01-12T17:42:16.287Z,97776.94
2023-01-12T17:44:42.963Z,97784.84
2023-01-12T17:47:10.184Z,97780.47
2023-01-12T17:49:37.112Z,97778.19
2023-01-12T17:52:04.025Z,97769.22
2023-01-12T17:54:30.687Z,97771.69
2023-01-12T17:56:57.378Z,97774.31
2023-01-12T17:59:24.332Z,97775.34
2023-01-12T18:01:51.414Z,97767.94
2023-01-12T18:04:18.671Z,97774.09
2023-01-12T18:06:46.211Z,97777.34
2023-01-12T18:09:13.810Z,97767.75
2023-01-12T18:11:40.888Z,97763.16
2023-01-12T18:14:08.017Z,97761.38
2023-01-12T18:16:35.179Z,97765.78
2023-01-12T18:19:06.818Z,97768.66
2023-01-12T18:21:34.236Z,97759.31
2023-01-12T18:24:01.689Z,97764.72
2023-01-12T18:26:30.896Z,97761.16
2023-01-12T18:28:58.690Z,97759.72
2023-01-12T18:31:33.625Z,97763.66
2023-01-12T18:34:05.278Z,97751.88
2023-01-12T18:36:39.971Z,97760.44
2023-01-12T18:39:09.011Z,97750.53
2023-01-12T18:41:55.359Z,97751.34
2023-01-12T18:44:23.168Z,97747.50
2023-01-12T18:47:08.331Z,97739.69
2023-01-12T18:49:36.302Z,97743.88
2023-01-12T18:52:22.855Z,97743.66
2023-01-12T18:54:53.284Z,97738.00
2023-01-12T18:57:23.186Z,97730.94
2023-01-12T18:59:56.547Z,97726.75
2023-01-12T19:02:23.318Z,97728.00
2023-01-12T19:04:50.461Z,97726.66
2023-01-12T19:07:40.392Z,97722.38
2023-01-12T19:10:07.536Z,97719.66
2023-01-12T19:12:34.166Z,97714.44
2023-01-12T19:15:19.670Z,97716.31
2023-01-12T19:17:46.439Z,97707.34
2023-01-12T19:20:17.324Z,97708.28
2023-01-12T19:23:02.533Z,97707.44
2023-01-12T19:25:47.971Z,97705.06
2023-01-12T19:28:39.663Z,97703.78
2023-01-12T19:31:11.903Z,97709.03
2023-01-12T19:33:39.251Z,97701.72
2023-01-12T19:36:09.401Z,97706.09
2023-01-12T19:38:36.452Z,97704.41
2023-01-12T19:41:34.343Z,97701.72
2023-01-12T19:44:05.204Z,97698.69
2023-01-12T19:46:33.153Z,97692.34
2023-01-12T19:49:00.098Z,97696.69
2023-01-12T19:51:26.728Z,97691.50
2023-01-12T19:53:53.371Z,97688.78
2023-01-12T19:56:20.044Z,97697.13
2023-01-12T19:58:46.689Z,97684.06
2023-01-12T20:01:23.341Z,97688.56
2023-01-12T20:03:50.775Z,97682.81
2023-01-12T20:06:17.606Z,97682.22
2023-01-12T20:08:44.332Z,97673.13
2023-01-12T20:11:10.987Z,97675.84
2023-01-12T20:13:37.631Z,97681.16
2023-01-12T20:16:09.263Z,97668.97
2023-01-12T20:18:36.254Z,97667.94
2023-01-12T20:21:08.366Z,97663.53
2023-01-12T20:23:35.066Z,97660.75
2023-01-12T20:26:04.832Z,97662.59
2023-01-12T20:28:31.504Z,97667.41
2023-01-12T20:30:59.474Z,97661.38
2023-01-12T20:33:26.353Z,97657.72
2023-01-12T20:35:53.638Z,97658.66
2023-01-12T20:38:22.659Z,97656.78
2023-01-12T20:40:49.675Z,97659.06
2023-01-12T20:43:16.492Z,97667.44
2023-01-12T20:45:44.216Z,97653.88
2023-01-12T20:48:13.629Z,97657.22
2023-01-12T20:50:47.386Z,97660.84
2023-01-12T20:53:15.595Z,97665.75
2023-01-12T20:55:49.126Z,97654.28
2023-01-12T20:58:16.099Z,97647.63
2023-01-12T21:00:43.268Z,97650.66
2023-01-12T21:03:10.106Z,97649.06
2023-01-12T21:05:41.959Z,97653.03
2023-01-12T21:08:08.820Z,97649.59
2023-01-12T21:10:39.423Z,97650.53
2023-01-12T21:13:07.110Z,97650.63
2023-01-12T21:15:33.916Z,97651.06
2023-01-12T21:18:00.524Z,97644.16
2023-01-12T21:20:27.182Z,97648.84
2023-01-12T21:22:53.989Z,97651.69
2023-01-12T21:25:20.650Z,97651.88
2023-01-12T21:27:47.298Z,97653.66
2023-01-12T21:30:14.115Z,97648.53
2023-01-12T21:32:43.423Z,97650.84
2023-01-12T21:35:10.207Z,97655.72
2023-01-12T21:37:36.873Z,97651.25
2023-01-12T21:40:04.002Z,97657.41
2023-01-12T21:42:49.437Z,97656.91
2023-01-12T21:45:16.094Z,97649.81
2023-01-12T21:47:45.856Z,97643.34
2023-01-12T21:50:13.067Z,97645.00
2023-01-12T21:52:41.474Z,97641.47
2023-01-12T21:55:11.292Z,97639.91
2023-01-12T21:57:38.106Z,97642.72
2023-01-12T22:00:05.873Z,97645.13
2023-01-12T22:02:34.279Z,97639.81
2023-01-12T22:05:00.932Z,97651.06
2023-01-12T22:07:27.963Z,97648.75
2023-01-12T22:09:55.061Z,97654.81
2023-01-12T22:12:21.748Z,97640.31
2023-01-12T22:14:48.353Z,97648.75
2023-01-12T22:17:14.993Z,97643.03
2023-01-12T22:19:41.644Z,97641.03
2023-01-12T22:22:08.255Z,97643.13
2023-01-12T22:24:34.855Z,97646.78
2023-01-12T22:27:03.421Z,97644.78
2023-01-12T22:29:30.066Z,97639.16
2023-01-12T22:31:56.700Z,97627.81
2023-01-12T22:34:25.059Z,97629.56
2023-01-12T22:36:51.668Z,97620.63
2023-01-12T22:39:18.298Z,97612.88
2023-01-12T22:41:44.950Z,97618.63
2023-01-12T22:44:11.720Z,97614.88
2023-01-12T22:46:38.523Z,97619.84
2023-01-12T22:49:05.483Z,97623.31
2023-01-12T22:51:32.239Z,97608.69
2023-01-12T22:53:59.041Z,97614.97
2023-01-12T22:56:26.237Z,97621.84
2023-01-12T22:58:54.735Z,97619.34
2023-01-12T23:01:22.734Z,97616.31
2023-01-12T23:03:54.241Z,97615.38
2023-01-12T23:06:22.344Z,97619.34
2023-01-12T23:08:49.630Z,97612.88
2023-01-12T23:11:24.318Z,97623.19
2023-01-12T23:13:51.759Z,97622.47
2023-01-12T23:16:19.654Z,97620.50
2023-01-12T23:18:47.412Z,97627.81
2023-01-12T23:21:16.929Z,97628.22
2023-01-12T23:23:52.454Z,97633.72
2023-01-12T23:26:22.672Z,97630.50
2023-01-12T23:28:52.123Z,97624.88
2023-01-12T23:31:24.484Z,97623.31
2023-01-12T23:33:51.733Z,97618.81
2023-01-12T23:36:21.222Z,97610.38
2023-01-12T23:38:51.866Z,97598.38
2023-01-12T23:41:23.380Z,97600.56
2023-01-12T23:43:51.831Z,97591.94
2023-01-12T23:46:23.519Z,97596.09
2023-01-12T23:48:51.457Z,97600.25
2023-01-12T23:51:18.108Z,97594.31
2023-01-12T23:53:47.497Z,97584.19
2023-01-12T23:56:15.816Z,97589.63
2023-01-12T23:58:43.410Z,97581.47
